Time;durP1;ratioP1;P1;durP2;ratioP2;P2;SDS_P1;SDS_P2;PMS_P1;PMS_P2;Temp;Humidity;BMP_temperature;BMP_pressure;BME280_temperature;BME280_humidity;BME280_pressure;Samples;Min_cycle;Max_cycle;Signal;HPM_P1;HPM_P2
2021/01/19 00:01:09;;;;;;;45.47;25.08;;;-12.20;79.90;;;;;;5014361;28;20021;-78
2021/01/19 00:03:35;;;;;;;48.28;26.42;;;-12.20;80.50;;;;;;5010101;28;20108;-79
2021/01/19 00:06:01;;;;;;;39.67;18.70;;;-12.10;80.10;;;;;;5013847;28;20042;-79
2021/01/19 00:08:27;;;;;;;48.60;24.63;;;-12.20;80.00;;;;;;5004754;28;20025;-77
2021/01/19 00:10:53;;;;;;;43.00;21.67;;;-12.10;79.90;;;;;;5004948;28;20041;-78
2021/01/19 00:13:21;;;;;;;50.05;25.27;;;-12.10;80.00;;;;;;5009363;28;20022;-78
2021/01/19 00:15:48;;;;;;;46.80;22.48;;;-12.10;80.10;;;;;;4997698;28;20030;-78
2021/01/19 00:18:14;;;;;;;44.67;19.73;;;-12.00;80.10;;;;;;5013450;28;20103;-77
2021/01/19 00:20:40;;;;;;;34.08;17.15;;;-12.00;79.70;;;;;;4995874;28;20026;-79
2021/01/19 00:23:06;;;;;;;41.55;23.15;;;-12.00;79.30;;;;;;5013365;28;20545;-79
2021/01/19 00:25:32;;;;;;;22.42;11.45;;;-12.00;79.00;;;;;;5006065;28;20035;-79
2021/01/19 00:27:58;;;;;;;24.05;12.77;;;-12.10;78.90;;;;;;5006420;28;20022;-78
2021/01/19 00:30:24;;;;;;;31.73;14.05;;;-12.00;79.20;;;;;;5000527;28;20388;-77
2021/01/19 00:32:50;;;;;;;25.73;11.55;;;-12.10;79.10;;;;;;5012620;28;20026;-78
2021/01/19 00:35:15;;;;;;;26.00;15.20;;;-12.10;79.30;;;;;;4995889;28;20109;-79
2021/01/19 00:37:41;;;;;;;22.50;12.52;;;-12.10;79.50;;;;;;5013504;28;20398;-79
2021/01/19 00:40:08;;;;;;;29.90;16.25;;;-12.20;79.20;;;;;;5004492;28;20030;-78
2021/01/19 00:42:33;;;;;;;28.75;17.63;;;-12.20;79.00;;;;;;5008734;28;20037;-78
2021/01/19 00:44:59;;;;;;;25.45;13.30;;;-12.30;79.10;;;;;;4996722;28;20022;-77
2021/01/19 00:47:25;;;;;;;20.00;8.95;;;-12.40;79.50;;;;;;4993857;28;20037;-77
2021/01/19 00:49:51;;;;;;;27.38;15.60;;;-12.30;80.10;;;;;;4993552;28;20100;-78
2021/01/19 00:52:16;;;;;;;24.35;13.38;;;-12.30;80.70;;;;;;4995649;28;20479;-79
2021/01/19 00:54:43;;;;;;;27.45;13.73;;;-12.30;80.90;;;;;;5000065;28;20027;-77
2021/01/19 00:57:09;;;;;;;31.27;15.90;;;-12.40;80.50;;;;;;4993217;28;20038;-79
2021/01/19 00:59:36;;;;;;;21.17;15.98;;;-12.40;80.50;;;;;;5000803;28;20032;-78
2021/01/19 01:02:01;;;;;;;16.00;10.57;;;-12.50;80.60;;;;;;5012811;28;20474;-78
2021/01/19 01:04:27;;;;;;;24.73;11.95;;;-12.40;80.80;;;;;;5012910;28;20050;-77
2021/01/19 01:06:54;;;;;;;25.75;15.15;;;-12.50;80.70;;;;;;5013082;28;20059;-77
2021/01/19 01:09:20;;;;;;;18.17;9.88;;;-12.50;80.80;;;;;;5013484;28;20026;-77
2021/01/19 01:11:46;;;;;;;12.70;8.37;;;-12.40;81.10;;;;;;5012908;28;20483;-79
2021/01/19 01:14:15;;;;;;;14.27;8.30;;;-12.40;81.10;;;;;;4995355;28;20022;-79
2021/01/19 01:16:41;;;;;;;13.55;6.78;;;-12.40;81.30;;;;;;5012608;28;20022;-78
2021/01/19 01:19:08;;;;;;;13.50;6.97;;;-12.40;81.50;;;;;;5013053;28;20030;-77
2021/01/19 01:21:43;;;;;;;14.73;7.55;;;-12.30;81.70;;;;;;5012972;28;20076;-77
2021/01/19 01:24:09;;;;;;;14.00;6.45;;;-12.30;81.80;;;;;;5012957;28;20022;-78
2021/01/19 01:26:36;;;;;;;14.77;5.55;;;-12.20;81.90;;;;;;5012714;28;20057;-78
2021/01/19 01:29:05;;;;;;;7.72;4.22;;;-12.20;81.70;;;;;;5012814;28;20495;-79
2021/01/19 01:31:32;;;;;;;10.80;6.47;;;-12.10;81.70;;;;;;5013202;28;20458;-78
2021/01/19 01:33:57;;;;;;;11.93;5.60;;;-12.10;81.30;;;;;;5012584;28;20022;-78
2021/01/19 01:36:23;;;;;;;12.48;6.63;;;-12.20;80.90;;;;;;5013246;28;20041;-77
2021/01/19 01:38:49;;;;;;;14.00;7.88;;;-12.20;81.10;;;;;;4995243;28;20073;-78
2021/01/19 01:41:17;;;;;;;10.80;7.10;;;-12.10;81.10;;;;;;5013705;28;20169;-79
2021/01/19 01:43:43;;;;;;;8.98;5.72;;;-12.10;81.10;;;;;;5001053;28;20062;-77
2021/01/19 01:46:11;;;;;;;8.50;5.65;;;-12.10;81.20;;;;;;5017229;28;20467;-79
2021/01/19 01:48:38;;;;;;;11.10;6.93;;;-12.00;81.20;;;;;;5012920;28;20448;-78
2021/01/19 01:51:05;;;;;;;9.48;6.13;;;-12.00;81.10;;;;;;5012762;28;20436;-78
2021/01/19 01:53:31;;;;;;;10.38;6.72;;;-12.00;81.10;;;;;;5013595;28;20081;-78
2021/01/19 01:55:57;;;;;;;15.00;7.43;;;-11.90;81.10;;;;;;5016197;28;20030;-78
2021/01/19 01:58:23;;;;;;;14.73;7.00;;;-11.90;81.00;;;;;;5016715;28;20042;-78
2021/01/19 02:00:50;;;;;;;12.82;8.50;;;-11.90;80.90;;;;;;5016293;28;20026;-79
2021/01/19 02:03:17;;;;;;;17.77;8.32;;;-11.80;80.90;;;;;;5016650;28;20426;-78
2021/01/19 02:05:43;;;;;;;13.57;7.13;;;-11.80;80.80;;;;;;5016491;28;20030;-79
2021/01/19 02:08:27;;;;;;;13.88;7.20;;;-11.80;80.70;;;;;;5018342;28;20124;-78
2021/01/19 02:11:23;;;;;;;15.90;8.07;;;-11.80;80.30;;;;;;5022014;28;20045;-77
2021/01/19 02:14:25;;;;;;;12.65;6.90;;;-11.80;80.20;;;;;;5011373;28;20467;-79
2021/01/19 02:17:05;;;;;;;14.52;8.32;;;-11.90;80.10;;;;;;5016249;28;20052;-80
2021/01/19 02:19:49;;;;;;;12.60;7.65;;;-11.90;80.00;;;;;;4998401;28;20121;-78
2021/01/19 02:22:39;;;;;;;10.43;8.45;;;-11.90;80.00;;;;;;5016177;28;20051;-79
2021/01/19 02:25:49;;;;;;;14.07;8.68;;;-11.90;80.10;;;;;;5011035;28;20401;-79
2021/01/19 02:28:42;;;;;;;17.02;8.27;;;-11.90;80.30;;;;;;4962689;28;20457;-77
2021/01/19 02:31:27;;;;;;;15.20;8.45;;;-11.80;80.50;;;;;;5015822;28;20079;-81
2021/01/19 02:34:17;;;;;;;15.38;8.57;;;-11.80;80.60;;;;;;5003621;28;20025;-79
2021/01/19 02:37:07;;;;;;;19.70;8.35;;;-11.80;80.60;;;;;;5016038;28;20017;-79
2021/01/19 02:40:03;;;;;;;12.50;7.20;;;-11.70;80.80;;;;;;5008834;28;20120;-78
2021/01/19 02:42:36;;;;;;;11.18;7.60;;;-11.70;80.70;;;;;;5002854;28;20026;-79
2021/01/19 02:45:05;;;;;;;16.35;9.02;;;-11.70;80.70;;;;;;5015418;28;20022;-79
2021/01/19 02:47:31;;;;;;;18.00;7.63;;;-11.60;80.70;;;;;;5015551;28;20026;-79
2021/01/19 02:49:57;;;;;;;17.02;7.53;;;-11.60;80.80;;;;;;4998166;28;20464;-80
2021/01/19 02:52:24;;;;;;;14.00;8.55;;;-11.50;81.00;;;;;;5015290;28;20501;-79
2021/01/19 02:54:50;;;;;;;17.27;7.40;;;-11.50;81.00;;;;;;4997899;28;20360;-79
2021/01/19 02:57:33;;;;;;;10.30;6.55;;;-11.50;80.80;;;;;;4997563;28;20717;-79
2021/01/19 03:00:21;;;;;;;19.27;8.60;;;-11.50;80.70;;;;;;5015374;28;20425;-79
2021/01/19 03:02:49;;;;;;;15.60;7.60;;;-11.50;81.10;;;;;;5015133;28;20069;-77
2021/01/19 03:05:16;;;;;;;14.18;6.20;;;-11.50;80.60;;;;;;5015091;28;20026;-78
2021/01/19 03:07:44;;;;;;;16.65;8.80;;;-11.50;80.70;;;;;;5015322;28;20499;-80
2021/01/19 03:10:13;;;;;;;13.25;8.10;;;-11.50;81.00;;;;;;4997262;28;20425;-79
2021/01/19 03:12:41;;;;;;;11.93;6.53;;;-11.50;81.20;;;;;;5013779;28;20030;-81
2021/01/19 03:15:08;;;;;;;11.05;7.45;;;-11.50;81.40;;;;;;5014898;28;20025;-80
2021/01/19 03:17:34;;;;;;;13.93;7.25;;;-11.40;81.60;;;;;;5014910;28;20034;-78
2021/01/19 03:20:00;;;;;;;11.88;6.70;;;-11.40;81.70;;;;;;5014625;28;20022;-80
2021/01/19 03:22:26;;;;;;;13.55;6.97;;;-11.40;81.80;;;;;;5014965;28;20061;-79
2021/01/19 03:24:51;;;;;;;18.20;8.95;;;-11.40;82.00;;;;;;5014887;28;20050;-78
2021/01/19 03:27:17;;;;;;;15.85;8.43;;;-11.40;82.10;;;;;;5015121;28;20037;-79
2021/01/19 03:29:43;;;;;;;14.38;8.57;;;-11.40;82.00;;;;;;5014618;28;20022;-79
2021/01/19 03:32:09;;;;;;;15.35;8.23;;;-11.40;81.90;;;;;;5014818;28;20475;-80
2021/01/19 03:34:35;;;;;;;16.85;10.30;;;-11.40;81.80;;;;;;5014760;28;20021;-78
2021/01/19 03:37:01;;;;;;;16.58;8.90;;;-11.30;81.90;;;;;;5014484;28;20058;-75
2021/01/19 03:39:27;;;;;;;17.30;7.95;;;-11.30;81.80;;;;;;5019833;28;20034;-79
2021/01/19 03:41:53;;;;;;;15.20;9.68;;;-11.30;81.70;;;;;;5017824;28;20081;-77
2021/01/19 03:44:19;;;;;;;22.17;12.15;;;-11.30;81.60;;;;;;5014738;28;20436;-80
2021/01/19 03:46:45;;;;;;;21.27;11.68;;;-11.30;81.50;;;;;;5014341;28;20472;-79
2021/01/19 03:49:11;;;;;;;23.38;9.82;;;-11.30;81.40;;;;;;5014233;28;20502;-78
2021/01/19 03:51:36;;;;;;;22.50;12.68;;;-11.20;81.40;;;;;;5014391;28;20026;-79
2021/01/19 03:54:03;;;;;;;23.27;12.95;;;-11.20;81.40;;;;;;4996647;28;20041;-81
2021/01/19 03:56:29;;;;;;;25.83;13.63;;;-11.20;81.30;;;;;;5014618;28;20029;-79
2021/01/19 03:58:55;;;;;;;24.27;13.88;;;-11.20;81.20;;;;;;5015838;28;20032;-80
2021/01/19 04:01:21;;;;;;;28.42;14.23;;;-11.20;81.10;;;;;;5015733;28;20025;-80
2021/01/19 04:03:47;;;;;;;27.20;13.50;;;-11.30;81.00;;;;;;5014696;28;20037;-79
2021/01/19 04:06:14;;;;;;;21.17;12.88;;;-11.30;80.90;;;;;;5018068;28;20030;-80
2021/01/19 04:08:40;;;;;;;20.02;13.85;;;-11.20;81.00;;;;;;5018735;28;20022;-80
2021/01/19 04:11:06;;;;;;;23.95;13.13;;;-11.30;80.80;;;;;;5014680;28;20072;-79
2021/01/19 04:13:32;;;;;;;18.17;11.65;;;-11.20;80.80;;;;;;5014076;28;20088;-79
2021/01/19 04:15:58;;;;;;;18.90;11.73;;;-11.20;80.90;;;;;;5013451;28;20499;-79
2021/01/19 04:18:24;;;;;;;26.08;13.10;;;-11.20;81.20;;;;;;5013797;28;20029;-80
2021/01/19 04:20:52;;;;;;;25.00;13.43;;;-11.20;81.40;;;;;;5014014;28;20014;-79
2021/01/19 04:23:18;;;;;;;27.80;12.65;;;-11.20;81.40;;;;;;5014050;28;20460;-79
2021/01/19 04:25:45;;;;;;;27.85;15.82;;;-11.20;81.50;;;;;;5006740;28;20019;-79
2021/01/19 04:28:11;;;;;;;23.35;12.90;;;-11.20;81.50;;;;;;5010537;28;20026;-80
2021/01/19 04:30:38;;;;;;;22.63;12.73;;;-11.20;81.60;;;;;;5014153;28;20032;-79
2021/01/19 04:33:04;;;;;;;24.83;11.85;;;-11.20;81.90;;;;;;5013896;28;20282;-79
2021/01/19 04:35:30;;;;;;;22.48;12.98;;;-11.20;81.90;;;;;;5014224;28;20022;-79
2021/01/19 04:37:56;;;;;;;27.55;14.20;;;-11.20;82.00;;;;;;5014409;28;20499;-80
2021/01/19 04:40:22;;;;;;;32.25;15.48;;;-11.30;82.00;;;;;;5018606;28;20026;-80
2021/01/19 04:42:48;;;;;;;26.80;13.40;;;-11.30;81.90;;;;;;5015815;28;20104;-79
2021/01/19 04:45:14;;;;;;;32.85;13.45;;;-11.30;81.90;;;;;;5013568;28;20406;-79
2021/01/19 04:47:40;;;;;;;31.77;14.35;;;-11.30;82.00;;;;;;5013351;28;20105;-79
2021/01/19 04:50:12;;;;;;;27.58;14.90;;;-11.30;82.00;;;;;;5013378;28;20121;-79
2021/01/19 04:52:43;;;;;;;28.65;13.45;;;-11.30;81.80;;;;;;5013510;28;20394;-79
2021/01/19 04:55:27;;;;;;;27.63;13.98;;;-11.30;82.00;;;;;;5011900;28;20084;-80
2021/01/19 04:58:13;;;;;;;28.77;13.20;;;-11.20;82.20;;;;;;5013315;28;20061;-76
2021/01/19 05:00:40;;;;;;;31.65;16.50;;;-11.20;82.20;;;;;;5013457;28;20018;-79
2021/01/19 05:03:18;;;;;;;21.42;13.15;;;-11.30;82.10;;;;;;5013924;28;20045;-79
2021/01/19 05:05:47;;;;;;;26.77;11.93;;;-11.20;81.90;;;;;;5013191;28;20022;-79
2021/01/19 05:08:16;;;;;;;22.48;14.07;;;-11.20;82.00;;;;;;4995613;28;20041;-80
2021/01/19 05:10:54;;;;;;;21.30;13.32;;;-11.20;82.30;;;;;;5013237;28;20014;-79
2021/01/19 05:13:41;;;;;;;33.83;15.48;;;-11.20;82.60;;;;;;4999480;28;20022;-79
2021/01/19 05:16:31;;;;;;;20.48;13.60;;;-11.20;82.80;;;;;;4995803;28;20546;-80
2021/01/19 05:18:58;;;;;;;28.13;16.52;;;-11.20;82.80;;;;;;5012307;28;20478;-79
2021/01/19 05:21:24;;;;;;;26.60;17.08;;;-11.20;82.80;;;;;;5012959;28;20018;-80
2021/01/19 05:23:54;;;;;;;26.90;11.48;;;-11.20;82.80;;;;;;5013672;28;20054;-80
2021/01/19 05:26:20;;;;;;;31.70;15.88;;;-11.20;82.70;;;;;;4995480;28;20064;-79
2021/01/19 05:28:49;;;;;;;27.05;13.38;;;-11.20;82.90;;;;;;5014703;28;20062;-80
2021/01/19 05:31:15;;;;;;;30.45;13.95;;;-11.20;83.20;;;;;;5017397;28;20018;-78
2021/01/19 05:33:55;;;;;;;31.10;13.05;;;-11.20;83.60;;;;;;5019001;28;20026;-79
2021/01/19 05:36:31;;;;;;;28.30;14.35;;;-11.20;83.90;;;;;;5022387;28;20018;-79
2021/01/19 05:38:58;;;;;;;32.25;14.70;;;-11.20;84.10;;;;;;5018161;28;20091;-80
2021/01/19 05:41:30;;;;;;;31.15;15.82;;;-11.30;84.10;;;;;;5017187;28;20433;-80
2021/01/19 05:44:08;;;;;;;25.92;14.65;;;-11.30;84.60;;;;;;5016981;28;20368;-77
2021/01/19 05:46:34;;;;;;;29.85;16.40;;;-11.30;84.80;;;;;;5008945;28;20022;-79
2021/01/19 05:49:02;;;;;;;32.22;17.85;;;-11.30;84.70;;;;;;5016451;28;20018;-77
2021/01/19 05:51:28;;;;;;;;;;;-11.30;84.60;;;;;;5015604;28;20030;-78
2021/01/19 05:53:56;;;;;;;29.13;14.57;;;-11.30;84.40;;;;;;5016211;28;19948;-78
2021/01/19 05:56:23;;;;;;;22.17;11.90;;;-11.30;84.00;;;;;;5016732;28;20390;-78
2021/01/19 05:58:49;;;;;;;27.58;15.82;;;-11.30;83.80;;;;;;5017153;28;20116;-78
2021/01/19 06:01:34;;;;;;;32.17;15.68;;;-11.30;84.10;;;;;;5017120;28;20026;-78
2021/01/19 06:04:02;;;;;;;28.25;16.88;;;-11.30;84.30;;;;;;5019438;28;20034;-78
2021/01/19 06:06:30;;;;;;;30.77;18.75;;;-11.30;84.10;;;;;;5000554;28;20026;-80
2021/01/19 06:09:04;;;;;;;32.15;15.93;;;-11.20;83.90;;;;;;5016727;28;20017;-79
2021/01/19 06:11:31;;;;;;;30.05;17.23;;;-11.20;83.80;;;;;;5015950;28;20084;-78
2021/01/19 06:13:57;;;;;;;30.48;19.63;;;-11.20;83.80;;;;;;5016613;28;20038;-79
2021/01/19 06:16:25;;;;;;;31.15;17.02;;;-11.10;83.70;;;;;;5016238;28;20033;-78
2021/01/19 06:18:52;;;;;;;26.52;15.10;;;-11.10;83.50;;;;;;4998197;28;20042;-79
2021/01/19 06:21:34;;;;;;;34.55;15.57;;;-11.10;83.50;;;;;;5016108;28;20021;-79
2021/01/19 06:24:01;;;;;;;29.85;15.10;;;-11.00;83.90;;;;;;5015915;28;20030;-78
2021/01/19 06:26:27;;;;;;;37.63;18.90;;;-11.00;84.00;;;;;;5016041;28;20021;-79
2021/01/19 06:28:53;;;;;;;20.30;14.43;;;-11.00;84.10;;;;;;5016190;28;20014;-78
2021/01/19 06:31:23;;;;;;;36.60;20.33;;;-10.90;84.10;;;;;;4998603;28;20636;-79
2021/01/19 06:33:50;;;;;;;35.80;22.23;;;-11.00;84.00;;;;;;5016199;28;20025;-79
2021/01/19 06:36:20;;;;;;;41.05;21.45;;;-10.90;83.60;;;;;;5012491;28;20061;-78
2021/01/19 06:38:48;;;;;;;44.92;23.40;;;-10.90;83.30;;;;;;4997067;28;20084;-79
2021/01/19 06:41:18;;;;;;;32.95;18.55;;;-10.90;82.50;;;;;;5015636;28;20353;-80
2021/01/19 06:43:46;;;;;;;38.33;16.02;;;-10.90;82.10;;;;;;5014631;28;20022;-81
2021/01/19 06:46:14;;;;;;;34.30;19.60;;;-10.90;82.60;;;;;;5010180;28;20030;-81
2021/01/19 06:48:43;;;;;;;31.15;19.23;;;-10.90;83.20;;;;;;4996941;28;20049;-82
2021/01/19 06:51:12;;;;;;;29.92;14.98;;;-10.80;83.70;;;;;;5015058;28;20032;-81
2021/01/19 06:54:00;;;;;;;35.63;18.52;;;-10.90;84.00;;;;;;5014554;28;20364;-79
2021/01/19 06:56:31;;;;;;;31.13;16.98;;;-10.90;84.50;;;;;;5002645;28;20058;-78
2021/01/19 06:58:57;;;;;;;45.17;18.25;;;-10.90;84.70;;;;;;5004775;28;20113;-80
2021/01/19 07:01:28;;;;;;;42.53;21.65;;;-10.90;85.10;;;;;;5004617;28;20475;-80
2021/01/19 07:04:24;;;;;;;31.50;16.30;;;-10.90;85.10;;;;;;4996661;28;20492;-79
2021/01/19 07:06:53;;;;;;;37.90;21.15;;;-10.90;85.10;;;;;;5007783;28;20013;-78
2021/01/19 07:09:46;;;;;;;34.75;18.58;;;-10.90;85.00;;;;;;4997250;28;20082;-78
2021/01/19 07:12:17;;;;;;;38.72;22.15;;;-10.90;85.20;;;;;;4997256;28;20032;-79
2021/01/19 07:14:58;;;;;;;42.53;20.00;;;-10.90;85.20;;;;;;5014609;28;20499;-79
2021/01/19 07:17:47;;;;;;;37.95;19.15;;;-10.80;85.20;;;;;;4997142;28;20038;-79
2021/01/19 07:20:21;;;;;;;47.45;20.48;;;-10.80;85.20;;;;;;4983886;28;20029;-79
2021/01/19 07:22:57;;;;;;;54.05;26.17;;;-10.80;85.10;;;;;;5015078;28;20494;-78
2021/01/19 07:25:24;;;;;;;30.60;16.77;;;-10.80;85.00;;;;;;5003275;28;20026;-80
2021/01/19 07:27:50;;;;;;;43.65;21.52;;;-10.70;84.90;;;;;;5001685;28;20037;-79
2021/01/19 07:30:17;;;;;;;44.33;20.23;;;-10.70;84.90;;;;;;5024410;28;20033;-78
2021/01/19 07:32:48;;;;;;;37.70;21.45;;;-10.70;84.90;;;;;;5018226;28;20017;-79
2021/01/19 07:35:14;;;;;;;44.42;22.75;;;-10.60;85.00;;;;;;5014310;28;20026;-79
2021/01/19 07:37:40;;;;;;;44.00;21.90;;;-10.60;85.30;;;;;;5015620;28;20033;-80
2021/01/19 07:40:18;;;;;;;45.10;22.85;;;-10.60;85.40;;;;;;5017575;28;20037;-80
2021/01/19 07:42:44;;;;;;;45.35;22.05;;;-10.50;85.50;;;;;;5014647;28;20022;-79
2021/01/19 07:45:10;;;;;;;41.90;24.17;;;-10.50;85.30;;;;;;5014441;28;20029;-78
2021/01/19 07:47:44;;;;;;;51.22;20.45;;;-10.40;85.30;;;;;;5014536;28;20061;-79
2021/01/19 07:50:14;;;;;;;38.03;21.52;;;-10.40;85.40;;;;;;5014567;28;20029;-79
2021/01/19 07:52:45;;;;;;;45.65;18.83;;;-10.30;85.50;;;;;;5014942;28;20018;-80
2021/01/19 07:55:21;;;;;;;40.95;19.73;;;-10.20;85.70;;;;;;5014890;28;20305;-79
2021/01/19 07:57:52;;;;;;;47.63;21.00;;;-10.30;85.70;;;;;;5015082;28;20076;-77
2021/01/19 08:00:26;;;;;;;32.55;19.30;;;-10.20;85.40;;;;;;5015327;28;20263;-81
2021/01/19 08:03:07;;;;;;;39.38;19.13;;;-10.20;85.20;;;;;;5014774;28;20042;-79
2021/01/19 08:05:33;;;;;;;34.03;20.75;;;-10.20;85.50;;;;;;5014026;28;20034;-80
2021/01/19 08:08:00;;;;;;;36.67;19.30;;;-10.10;85.80;;;;;;5013645;28;20068;-78
2021/01/19 08:10:27;;;;;;;42.95;20.92;;;-10.10;86.00;;;;;;5014016;28;20022;-79
2021/01/19 08:12:58;;;;;;;34.08;21.92;;;-10.10;86.10;;;;;;5014171;28;20025;-79
2021/01/19 08:15:32;;;;;;;45.95;22.67;;;-10.00;86.30;;;;;;5013663;28;20112;-79
2021/01/19 08:18:02;;;;;;;48.47;22.30;;;-10.00;86.40;;;;;;5013700;28;20192;-79
2021/01/19 08:20:33;;;;;;;39.88;22.90;;;-9.90;86.30;;;;;;5013865;28;20022;-81
2021/01/19 08:23:24;;;;;;;39.85;21.02;;;-9.80;86.00;;;;;;4995819;28;20022;-78
2021/01/19 08:25:50;;;;;;;30.40;19.52;;;-9.70;85.30;;;;;;5013998;28;20014;-80
2021/01/19 08:28:16;;;;;;;43.22;22.73;;;-9.60;84.80;;;;;;4996076;28;20030;-80
2021/01/19 08:30:44;;;;;;;46.05;23.13;;;-9.60;84.50;;;;;;5013710;28;20022;-80
2021/01/19 08:33:12;;;;;;;40.85;22.27;;;-9.60;84.50;;;;;;4995832;28;20116;-81
2021/01/19 08:35:38;;;;;;;41.03;24.83;;;-9.50;84.80;;;;;;5013708;28;20018;-79
2021/01/19 08:38:05;;;;;;;26.38;16.58;;;-9.50;84.70;;;;;;4996108;28;20057;-80
2021/01/19 08:40:33;;;;;;;43.40;21.20;;;-9.50;84.60;;;;;;4995928;28;20026;-81
2021/01/19 08:43:00;;;;;;;39.92;20.65;;;-9.40;84.70;;;;;;4992568;28;20480;-79
2021/01/19 08:45:34;;;;;;;40.45;21.33;;;-9.30;84.60;;;;;;5011809;28;20309;-80
2021/01/19 08:48:05;;;;;;;41.78;21.35;;;-9.30;84.40;;;;;;5014254;28;20026;-81
2021/01/19 08:50:36;;;;;;;37.75;22.05;;;-9.20;84.60;;;;;;5014158;28;20562;-80
2021/01/19 08:53:12;;;;;;;40.53;22.70;;;-9.20;84.40;;;;;;5013465;28;20068;-79
2021/01/19 08:55:39;;;;;;;34.63;15.95;;;-9.20;84.40;;;;;;5013345;28;20045;-81
2021/01/19 08:58:06;;;;;;;38.50;21.25;;;-9.20;85.10;;;;;;5013770;28;20502;-80
2021/01/19 09:00:37;;;;;;;42.25;20.58;;;-9.20;84.80;;;;;;5013891;28;20021;-80
2021/01/19 09:03:15;;;;;;;37.65;20.83;;;-9.10;84.80;;;;;;5013702;28;20053;-80
2021/01/19 09:05:41;;;;;;;35.50;17.60;;;-9.00;84.10;;;;;;5013461;28;20052;-79
2021/01/19 09:08:18;;;;;;;42.65;23.48;;;-9.00;83.50;;;;;;5013544;28;20344;-78
2021/01/19 09:10:46;;;;;;;39.25;22.58;;;-9.00;82.20;;;;;;4996238;28;20037;-80
2021/01/19 09:13:13;;;;;;;31.02;19.63;;;-8.90;81.40;;;;;;4995945;28;20034;-79
2021/01/19 09:15:42;;;;;;;36.33;19.70;;;-8.90;80.40;;;;;;5013713;28;20466;-81
2021/01/19 09:18:13;;;;;;;37.10;20.63;;;-8.90;79.60;;;;;;5013570;28;20033;-80
2021/01/19 09:20:40;;;;;;;34.72;22.48;;;-8.90;78.90;;;;;;5013431;28;20547;-79
2021/01/19 09:23:07;;;;;;;;;;;-8.80;79.20;;;;;;5012466;28;20484;-79
2021/01/19 09:25:33;;;;;;;26.10;15.80;;;-8.80;79.80;;;;;;5014598;28;20000;-80
2021/01/19 09:28:05;;;;;;;31.40;20.73;;;-8.70;78.70;;;;;;5020752;28;20046;-81
2021/01/19 09:30:35;;;;;;;33.78;19.38;;;-8.80;78.10;;;;;;5014721;28;20048;-80
2021/01/19 09:33:11;;;;;;;22.92;11.82;;;-8.70;78.00;;;;;;4995298;28;20493;-80
2021/01/19 09:35:38;;;;;;;43.75;21.52;;;-8.70;78.50;;;;;;4982972;28;20022;-81
2021/01/19 09:38:11;;;;;;;38.28;21.00;;;-8.70;78.00;;;;;;5013124;28;20033;-80
2021/01/19 09:40:37;;;;;;;35.47;19.05;;;-8.70;77.40;;;;;;4995229;28;20018;-80
2021/01/19 09:43:12;;;;;;;42.80;22.23;;;-8.70;77.50;;;;;;5012929;28;20391;-79
2021/01/19 09:45:38;;;;;;;39.20;21.45;;;-8.70;77.10;;;;;;5012889;28;20402;-79
2021/01/19 09:48:06;;;;;;;27.58;17.02;;;-8.70;76.60;;;;;;5013127;28;20026;-79
2021/01/19 09:50:32;;;;;;;35.95;23.15;;;-8.70;76.20;;;;;;5013216;28;20024;-78
2021/01/19 09:52:58;;;;;;;39.22;23.88;;;-8.70;76.10;;;;;;5014856;28;20030;-79
2021/01/19 09:55:30;;;;;;;39.30;19.88;;;-8.60;76.60;;;;;;5016780;28;20076;-79
2021/01/19 09:58:00;;;;;;;37.60;21.65;;;-8.60;76.70;;;;;;5014481;28;20224;-79
2021/01/19 10:00:39;;;;;;;33.40;20.38;;;-8.60;76.30;;;;;;5012704;28;20084;-80
2021/01/19 10:03:20;;;;;;;35.78;21.45;;;-8.60;76.10;;;;;;5010989;28;20112;-79
2021/01/19 10:06:02;;;;;;;30.42;18.27;;;-8.60;76.00;;;;;;5010925;28;20426;-81
2021/01/19 10:08:29;;;;;;;35.17;17.83;;;-8.60;74.80;;;;;;5012394;28;20040;-78
2021/01/19 10:10:56;;;;;;;30.55;14.98;;;-8.70;73.60;;;;;;4995251;28;20047;-79
2021/01/19 10:13:27;;;;;;;36.70;17.95;;;-8.80;74.50;;;;;;4999842;28;20547;-79
2021/01/19 10:16:04;;;;;;;33.30;20.45;;;-8.80;75.30;;;;;;5016369;28;20033;-80
2021/01/19 10:18:33;;;;;;;32.65;18.65;;;-8.80;75.80;;;;;;4986105;28;20499;-81
2021/01/19 10:20:59;;;;;;;20.88;12.13;;;-8.80;75.80;;;;;;5017187;28;20388;-80
2021/01/19 10:23:34;;;;;;;28.00;18.33;;;-8.70;75.90;;;;;;5016668;28;20475;-81
2021/01/19 10:26:11;;;;;;;15.13;9.82;;;-8.80;75.80;;;;;;5016323;28;20026;-80
2021/01/19 10:28:39;;;;;;;31.13;14.25;;;-8.80;75.90;;;;;;4997869;28;20033;-79
2021/01/19 10:31:14;;;;;;;33.90;17.98;;;-8.80;76.20;;;;;;5015896;28;20033;-81
2021/01/19 10:33:55;;;;;;;29.50;16.65;;;-8.80;76.30;;;;;;5015788;28;20479;-80
2021/01/19 10:36:22;;;;;;;22.92;14.80;;;-8.80;76.30;;;;;;5015730;28;20113;-80
2021/01/19 10:38:47;;;;;;;26.60;17.08;;;-8.70;76.70;;;;;;5015498;28;20061;-79
2021/01/19 10:41:34;;;;;;;26.77;18.38;;;-8.70;76.50;;;;;;5015679;28;20076;-80
2021/01/19 10:44:00;;;;;;;24.45;14.60;;;-8.70;76.00;;;;;;5016228;28;20022;-80
2021/01/19 10:46:28;;;;;;;20.90;11.40;;;-8.70;76.40;;;;;;5015969;28;20034;-80
2021/01/19 10:49:11;;;;;;;20.77;12.15;;;-8.70;77.40;;;;;;5016408;28;20025;-79
2021/01/19 10:51:37;;;;;;;18.55;12.02;;;-8.70;78.10;;;;;;5000603;28;20022;-79
2021/01/19 10:54:12;;;;;;;14.93;8.85;;;-8.70;78.00;;;;;;5019156;28;20061;-79
2021/01/19 10:56:40;;;;;;;17.00;10.50;;;-8.70;77.40;;;;;;5015716;28;20026;-79
2021/01/19 10:59:07;;;;;;;21.85;12.02;;;-8.70;77.00;;;;;;5015165;28;20109;-79
2021/01/19 11:01:34;;;;;;;11.48;7.30;;;-8.70;77.50;;;;;;5015106;28;20064;-80
2021/01/19 11:04:01;;;;;;;26.48;10.48;;;-8.70;77.50;;;;;;5015000;28;20109;-81
2021/01/19 11:06:31;;;;;;;11.57;6.60;;;-8.70;76.80;;;;;;5015913;28;20026;-80
2021/01/19 11:08:58;;;;;;;9.88;5.95;;;-8.80;76.40;;;;;;5016099;28;20033;-80
2021/01/19 11:11:24;;;;;;;14.73;6.00;;;-8.80;76.40;;;;;;5015475;28;20049;-80
2021/01/19 11:13:50;;;;;;;14.73;8.52;;;-8.90;76.40;;;;;;5014822;28;20032;-79
2021/01/19 11:16:16;;;;;;;12.23;7.20;;;-9.00;76.40;;;;;;5014884;28;20029;-80
2021/01/19 11:18:42;;;;;;;11.80;7.60;;;-8.90;76.90;;;;;;5014727;28;20038;-79
2021/01/19 11:21:11;;;;;;;21.08;12.55;;;-9.00;77.00;;;;;;5015189;28;20071;-79
2021/01/19 11:23:38;;;;;;;12.63;7.18;;;-8.90;77.30;;;;;;5015608;28;20386;-80
2021/01/19 11:26:03;;;;;;;11.57;8.13;;;-8.90;77.30;;;;;;5001949;28;20041;-79
2021/01/19 11:28:29;;;;;;;15.00;9.07;;;-9.00;76.80;;;;;;5002225;28;20478;-79
2021/01/19 11:30:55;;;;;;;13.35;8.15;;;-9.00;76.70;;;;;;4998346;28;20136;-79
2021/01/19 11:33:21;;;;;;;14.02;7.18;;;-9.00;76.60;;;;;;5015269;28;20511;-80
2021/01/19 11:35:47;;;;;;;15.55;8.77;;;-9.10;76.60;;;;;;5014848;28;20030;-81
2021/01/19 11:38:13;;;;;;;18.15;9.93;;;-9.10;76.70;;;;;;5014518;28;20084;-80
2021/01/19 11:40:39;;;;;;;21.55;11.95;;;-9.20;76.90;;;;;;5014535;28;20356;-79
2021/01/19 11:43:05;;;;;;;22.53;12.43;;;-9.20;76.90;;;;;;5014487;28;20021;-80
2021/01/19 11:45:31;;;;;;;20.50;11.45;;;-9.20;77.10;;;;;;5014581;28;20268;-80
2021/01/19 11:47:57;;;;;;;12.27;8.82;;;-9.20;76.90;;;;;;5014815;28;20356;-80
2021/01/19 11:50:25;;;;;;;14.95;9.88;;;-9.30;76.70;;;;;;5015106;28;20026;-81
2021/01/19 11:52:51;;;;;;;14.02;8.45;;;-9.30;77.20;;;;;;5016585;28;20387;-80
2021/01/19 11:55:17;;;;;;;17.48;9.18;;;-9.40;77.40;;;;;;5017976;28;20033;-81
2021/01/19 11:57:43;;;;;;;15.98;8.23;;;-9.40;77.50;;;;;;5016139;28;20026;-79
2021/01/19 12:00:10;;;;;;;16.02;7.90;;;-9.40;77.40;;;;;;5016578;28;20064;-80
2021/01/19 12:02:36;;;;;;;12.98;8.85;;;-9.40;77.80;;;;;;5003902;28;20461;-80
2021/01/19 12:05:02;;;;;;;14.25;7.97;;;-9.40;78.10;;;;;;5014578;28;20037;-80
2021/01/19 12:07:28;;;;;;;15.40;7.63;;;-9.40;78.40;;;;;;5000043;28;20021;-80
2021/01/19 12:09:54;;;;;;;14.30;8.30;;;-9.40;78.50;;;;;;5013365;28;20036;-80
2021/01/19 12:12:21;;;;;;;11.57;6.70;;;-9.40;78.40;;;;;;5013977;28;20030;-80
2021/01/19 12:14:46;;;;;;;19.27;10.87;;;-9.50;78.40;;;;;;5013664;28;20060;-79
2021/01/19 12:17:13;;;;;;;16.38;8.63;;;-9.50;78.50;;;;;;4996322;28;20109;-80
2021/01/19 12:19:40;;;;;;;11.20;8.40;;;-9.50;78.60;;;;;;5014478;28;20022;-81
2021/01/19 12:22:06;;;;;;;;;;;-9.50;78.90;;;;;;5006222;28;20030;-79
2021/01/19 12:24:34;;;;;;;20.58;6.50;;;-9.50;78.90;;;;;;5007973;28;19913;-80
2021/01/19 12:27:00;;;;;;;16.95;8.63;;;-9.60;78.70;;;;;;5013652;28;20025;-79
2021/01/19 12:29:26;;;;;;;18.77;8.98;;;-9.60;78.80;;;;;;5013884;28;20399;-80
2021/01/19 12:31:58;;;;;;;10.47;7.87;;;-9.60;79.00;;;;;;5013725;28;20375;-79
2021/01/19 12:34:24;;;;;;;15.32;8.35;;;-9.60;79.20;;;;;;4996024;28;20056;-79
2021/01/19 12:36:50;;;;;;;17.98;11.25;;;-9.60;79.40;;;;;;5013189;28;20109;-81
2021/01/19 12:39:16;;;;;;;15.95;9.32;;;-9.60;79.70;;;;;;4996556;28;20045;-79